Los Conquistadores, Argentina
Current Conditions -  °F | °C
As of 6:00 PM on Wednesday 22 Oct 2014 (Local Time) from SUSO Reporting Station
Clear Clear  
Wind Chill: 86°   Ceiling: Unl
Heat Index: 86°   Visibility: 6mi
Dew Point: 57°   Wind: 9mph
Humidity: 37%   Direction: 60°ENE
Pressure: 29.94"   Gusts: NA
Location:  30.59°S, 58.47°W
Report Text: SUSO 222100Z 06008KT CAVOK 30/14 Q1014
Loading
Personal Weather Stations






























Interactive Weather Map
Tropical Storm Tracking
New forecast layout! Learn more

10-Day Weather Forecast

Advertisements
Track Severe Weather on mobile